createdAt,value
2017-06-15T00:00:53.816Z,12.21
2017-06-15T00:01:48.848Z,14.43
2017-06-15T00:02:48.921Z,14.62
2017-06-15T00:03:36.944Z,14.69
2017-06-15T00:04:31.126Z,15.50
2017-06-15T00:05:20.029Z,16.08
2017-06-15T00:06:08.057Z,15.86
2017-06-15T00:07:02.116Z,15.49
2017-06-15T00:07:51.154Z,12.46
2017-06-15T00:08:40.326Z,10.49
2017-06-15T00:09:29.244Z,6.75
2017-06-15T00:10:17.333Z,5.68
2017-06-15T00:11:06.372Z,9.17
2017-06-15T00:12:00.371Z,5.61
2017-06-15T00:13:00.441Z,6.37
2017-06-15T00:14:00.442Z,0.21
2017-06-15T00:14:55.441Z,-2.85
2017-06-15T00:15:55.511Z,-3.17
2017-06-15T00:16:55.516Z,-1.36
2017-06-15T00:17:55.588Z,-0.03
2017-06-15T00:18:50.621Z,-0.50
2017-06-15T00:19:39.010Z,2.92
2017-06-15T00:20:38.707Z,4.22
2017-06-15T00:21:26.703Z,-0.11
2017-06-15T00:22:15.778Z,0.51
2017-06-15T00:23:04.854Z,3.22
2017-06-15T00:23:58.859Z,1.29
2017-06-15T00:24:47.930Z,-1.20
2017-06-15T00:25:35.966Z,-0.19
2017-06-15T00:26:24.036Z,1.45
2017-06-15T00:27:13.059Z,2.38
2017-06-15T00:28:01.065Z,3.92
2017-06-15T00:28:49.136Z,2.76
2017-06-15T00:29:38.571Z,2.18
2017-06-15T00:30:26.206Z,-2.93
2017-06-15T00:31:14.226Z,-4.12
2017-06-15T00:32:03.298Z,-4.12
2017-06-15T00:32:51.418Z,-4.12
2017-06-15T00:33:39.377Z,-4.12
2017-06-15T00:34:39.781Z,-4.12
2017-06-15T00:35:34.506Z,-4.12
2017-06-15T00:36:34.484Z,-4.12
2017-06-15T00:37:34.535Z,-4.12
2017-06-15T00:38:23.610Z,-4.12
2017-06-15T00:39:11.637Z,-4.12
2017-06-15T00:40:06.655Z,-4.12
2017-06-15T00:40:55.766Z,-4.12
2017-06-15T00:41:56.739Z,-4.12
2017-06-15T00:42:50.739Z,-4.12
2017-06-15T00:43:39.826Z,-4.12
2017-06-15T00:44:33.858Z,-4.12
2017-06-15T00:45:21.909Z,-4.12
2017-06-15T00:46:10.934Z,-4.12
2017-06-15T00:46:58.935Z,-4.12
2017-06-15T00:47:47.047Z,-4.12
2017-06-15T00:48:47.014Z,-4.12
2017-06-15T00:49:36.135Z,-4.12
2017-06-15T00:50:24.120Z,-4.12
2017-06-15T00:51:13.187Z,-4.12
2017-06-15T00:52:01.201Z,-4.12
2017-06-15T00:52:49.230Z,-4.12
2017-06-15T00:53:38.313Z,-4.12
2017-06-15T00:54:26.364Z,-4.12
2017-06-15T00:55:14.444Z,-4.12
2017-06-15T00:56:03.463Z,-4.12
2017-06-15T00:56:51.671Z,-4.12
2017-06-15T00:57:39.592Z,-4.12
2017-06-15T00:58:28.569Z,-4.12
2017-06-15T00:59:17.595Z,-4.12
2017-06-15T01:00:06.631Z,-4.12
2017-06-15T01:00:54.703Z,-4.12
2017-06-15T01:01:43.129Z,-4.12
2017-06-15T01:02:36.837Z,-4.12
2017-06-15T01:03:25.800Z,-4.12
2017-06-15T01:04:13.873Z,-4.12
2017-06-15T01:05:01.930Z,-4.12
2017-06-15T01:05:55.935Z,-4.12
2017-06-15T01:06:44.007Z,-4.12
2017-06-15T01:07:32.029Z,-4.12
2017-06-15T01:08:20.124Z,-4.12
2017-06-15T01:09:14.108Z,-4.12
2017-06-15T01:10:03.201Z,-4.13
2017-06-15T01:10:51.210Z,-4.13
2017-06-15T01:11:39.227Z,-4.13
2017-06-15T01:12:33.263Z,-4.13
2017-06-15T01:13:27.629Z,-4.13
2017-06-15T01:14:21.632Z,-4.13
2017-06-15T01:15:09.434Z,-4.13
2017-06-15T01:16:03.453Z,-4.13
2017-06-15T01:16:52.500Z,-4.13
2017-06-15T01:17:46.555Z,-4.13
2017-06-15T01:18:46.601Z,-4.13
2017-06-15T01:19:40.988Z,-4.13
2017-06-15T01:20:40.633Z,-4.13
2017-06-15T01:21:34.670Z,-4.13
2017-06-15T01:22:28.748Z,-4.13
2017-06-15T01:23:28.753Z,-4.13
2017-06-15T01:24:22.842Z,-4.13
2017-06-15T01:25:11.851Z,-4.13
2017-06-15T01:26:11.876Z,-4.13
2017-06-15T01:27:00.935Z,-4.13
2017-06-15T01:27:48.932Z,-4.13
2017-06-15T01:28:44.022Z,-4.14
2017-06-15T01:29:39.578Z,-4.14
2017-06-15T01:30:28.090Z,-4.14
2017-06-15T01:31:16.151Z,-4.14
2017-06-15T01:32:05.160Z,-4.14
2017-06-15T01:32:53.177Z,-4.14
2017-06-15T01:33:41.284Z,-4.14
2017-06-15T01:34:30.265Z,-4.14
2017-06-15T01:35:18.341Z,-4.14
2017-06-15T01:36:06.360Z,-4.14
2017-06-15T01:36:55.439Z,-4.14
2017-06-15T01:37:43.805Z,-4.14
2017-06-15T01:38:31.513Z,-4.14
2017-06-15T01:39:20.998Z,-4.14
2017-06-15T01:40:09.052Z,-4.14
2017-06-15T01:40:56.660Z,-4.14
2017-06-15T01:41:51.668Z,-4.14
2017-06-15T01:42:40.712Z,-4.14
2017-06-15T01:43:28.757Z,-4.14
2017-06-15T01:44:28.783Z,-4.14
2017-06-15T01:45:23.851Z,-4.14
2017-06-15T01:46:23.929Z,-4.14
2017-06-15T01:47:18.938Z,-4.14
2017-06-15T01:48:13.959Z,-4.14
2017-06-15T01:49:14.945Z,-4.14
2017-06-15T01:50:14.997Z,-4.14
2017-06-15T01:51:09.023Z,-4.14
2017-06-15T01:52:03.097Z,-4.14
2017-06-15T01:52:51.132Z,-4.14
2017-06-15T01:53:40.220Z,-4.14
2017-06-15T01:54:28.440Z,-4.14
2017-06-15T01:55:22.260Z,-4.14
2017-06-15T01:56:22.240Z,-4.14
2017-06-15T01:57:22.344Z,-4.14
2017-06-15T01:58:22.364Z,-4.14
2017-06-15T01:59:28.356Z,-4.14
2017-06-15T02:00:22.401Z,-4.14
2017-06-15T02:01:17.745Z,-4.14
2017-06-15T02:02:06.451Z,-4.14
2017-06-15T02:02:54.913Z,-4.14
2017-06-15T02:03:55.817Z,-4.14
2017-06-15T02:04:50.539Z,-4.14
2017-06-15T02:05:44.705Z,-4.14
2017-06-15T02:06:33.668Z,-4.14
2017-06-15T02:07:21.710Z,-4.14
2017-06-15T02:08:10.780Z,-4.14
2017-06-15T02:09:04.806Z,-4.13
2017-06-15T02:09:53.848Z,-4.13
2017-06-15T02:10:41.930Z,-4.13
2017-06-15T02:11:31.182Z,-4.13
2017-06-15T02:12:18.993Z,-4.13
2017-06-15T02:13:07.018Z,-4.13
2017-06-15T02:13:56.077Z,-4.13
2017-06-15T02:14:44.437Z,-4.13
2017-06-15T02:15:32.453Z,-4.13
2017-06-15T02:16:21.232Z,-4.14
2017-06-15T02:17:09.236Z,-4.14
2017-06-15T02:17:57.301Z,-4.14
2017-06-15T02:18:46.393Z,-4.14
2017-06-15T02:19:34.460Z,-4.14
2017-06-15T02:20:22.427Z,-4.14
2017-06-15T02:21:11.442Z,-4.14
2017-06-15T02:21:59.521Z,-4.14
2017-06-15T02:22:47.563Z,-4.14
2017-06-15T02:23:41.543Z,-4.14
2017-06-15T02:24:30.632Z,-4.14
2017-06-15T02:25:19.744Z,-4.14
2017-06-15T02:26:19.678Z,-4.14
2017-06-15T02:27:14.743Z,-4.14
2017-06-15T02:28:02.755Z,-4.14
2017-06-15T02:28:52.000Z,-4.14
2017-06-15T02:29:45.827Z,-4.13
2017-06-15T02:30:40.923Z,-4.13
2017-06-15T02:31:35.965Z,-4.13
2017-06-15T02:32:24.978Z,-4.13
2017-06-15T02:33:19.028Z,-4.13
2017-06-15T02:34:07.096Z,-4.13
2017-06-15T02:34:55.124Z,-4.13
2017-06-15T02:35:49.192Z,-4.13
2017-06-15T02:36:43.187Z,-4.13
2017-06-15T02:37:31.204Z,-4.13
2017-06-15T02:38:19.246Z,-4.13
2017-06-15T02:39:07.257Z,-4.13
2017-06-15T02:40:01.327Z,-4.13
2017-06-15T02:40:55.394Z,-4.13
2017-06-15T02:41:50.463Z,-4.13
2017-06-15T02:42:38.433Z,-4.13
2017-06-15T02:43:39.551Z,-4.13
2017-06-15T02:44:28.564Z,-4.13
2017-06-15T02:45:17.544Z,-4.13
2017-06-15T02:46:12.627Z,-4.13
2017-06-15T02:47:06.677Z,-4.13
2017-06-15T02:48:01.713Z,-4.14
2017-06-15T02:48:50.744Z,-4.14
2017-06-15T02:49:45.771Z,-4.14
2017-06-15T02:50:40.768Z,-4.14
2017-06-15T02:51:34.919Z,-4.14
2017-06-15T02:52:29.875Z,-4.14
2017-06-15T02:53:18.935Z,-4.14
2017-06-15T02:54:12.946Z,-4.14
2017-06-15T02:55:07.209Z,-4.14
2017-06-15T02:55:56.178Z,-4.14
2017-06-15T02:56:51.157Z,-4.14
2017-06-15T02:57:40.539Z,-4.14
2017-06-15T02:58:28.172Z,-4.14
2017-06-15T02:59:16.207Z,-4.14
2017-06-15T03:00:05.279Z,-4.14
2017-06-15T03:00:53.340Z,-4.14
2017-06-15T03:01:41.723Z,-4.14
2017-06-15T03:02:30.465Z,-4.14
2017-06-15T03:03:18.457Z,-4.14
2017-06-15T03:04:06.454Z,-4.14
2017-06-15T03:04:55.528Z,-4.14
2017-06-15T03:05:44.579Z,-4.14
2017-06-15T03:06:39.643Z,-4.14
2017-06-15T03:07:39.743Z,-4.14
2017-06-15T03:08:34.654Z,-4.14
2017-06-15T03:09:29.703Z,-4.14
2017-06-15T03:10:29.841Z,-4.14
2017-06-15T03:11:35.836Z,-4.14
2017-06-15T03:12:30.867Z,-4.14
2017-06-15T03:13:24.856Z,-4.14
2017-06-15T03:14:24.916Z,-4.14
2017-06-15T03:15:19.951Z,-4.14
2017-06-15T03:16:19.953Z,-4.14
2017-06-15T03:17:15.032Z,-4.14
2017-06-15T03:18:09.035Z,-4.14
2017-06-15T03:19:09.249Z,-4.14
2017-06-15T03:19:57.122Z,-4.14
2017-06-15T03:20:51.145Z,-4.14
2017-06-15T03:21:39.582Z,-4.14
2017-06-15T03:22:27.260Z,-4.14
2017-06-15T03:23:15.318Z,-4.14
2017-06-15T03:24:10.538Z,-4.14
2017-06-15T03:25:10.397Z,-4.14
2017-06-15T03:26:10.424Z,-4.13
2017-06-15T03:27:04.434Z,-4.13
2017-06-15T03:27:58.635Z,-4.13
2017-06-15T03:28:52.551Z,-4.13
2017-06-15T03:29:41.934Z,-4.13
2017-06-15T03:30:29.642Z,-4.13
2017-06-15T03:31:17.876Z,-4.13
2017-06-15T03:32:05.731Z,-4.13
2017-06-15T03:32:54.748Z,-4.13
2017-06-15T03:33:42.844Z,-4.13
2017-06-15T03:34:31.865Z,-4.13
2017-06-15T03:35:19.916Z,-4.13
2017-06-15T03:36:07.897Z,-4.13
2017-06-15T03:37:07.952Z,-4.13
2017-06-15T03:37:56.013Z,-4.13
2017-06-15T03:38:45.055Z,-4.13
2017-06-15T03:39:45.063Z,-4.13
2017-06-15T03:40:33.197Z,-4.13
2017-06-15T03:41:28.326Z,-4.13
2017-06-15T03:42:17.215Z,-4.13
2017-06-15T03:43:06.237Z,-4.13
2017-06-15T03:44:00.624Z,-4.13
2017-06-15T03:44:55.340Z,-4.13
2017-06-15T03:45:55.349Z,-4.13
2017-06-15T03:46:50.422Z,-4.13
2017-06-15T03:47:45.447Z,-4.13
2017-06-15T03:48:39.452Z,-4.13
2017-06-15T03:49:40.886Z,-4.13
2017-06-15T03:50:34.512Z,-4.13
2017-06-15T03:51:22.638Z,-4.13
2017-06-15T03:52:22.649Z,-4.13
2017-06-15T03:53:17.667Z,-4.13
2017-06-15T03:54:12.714Z,-4.13
2017-06-15T03:55:07.743Z,-4.13
2017-06-15T03:56:01.802Z,-4.13
2017-06-15T03:56:55.900Z,-4.13
2017-06-15T03:57:55.832Z,-4.13
2017-06-15T03:58:50.872Z,-4.13
2017-06-15T03:59:45.944Z,-4.13
2017-06-15T04:00:34.959Z,-4.13
2017-06-15T04:01:35.052Z,-4.13
2017-06-15T04:02:35.077Z,-4.13
2017-06-15T04:03:23.104Z,-4.13
2017-06-15T04:04:12.159Z,-4.13
2017-06-15T04:05:07.187Z,-4.13
2017-06-15T04:05:56.255Z,-4.12
2017-06-15T04:06:50.313Z,-4.12
2017-06-15T04:07:50.350Z,-4.12
2017-06-15T04:08:39.352Z,-4.12
2017-06-15T04:09:28.412Z,-4.12
2017-06-15T04:10:16.448Z,-4.12
2017-06-15T04:11:10.445Z,-4.12
2017-06-15T04:11:59.549Z,-4.12
2017-06-15T04:12:48.536Z,-4.12
2017-06-15T04:13:43.693Z,-4.12
2017-06-15T04:14:43.630Z,-4.12
2017-06-15T04:15:43.676Z,-4.12
2017-06-15T04:16:37.698Z,-4.12
2017-06-15T04:17:25.733Z,-4.12
2017-06-15T04:18:13.771Z,-4.12
2017-06-15T04:19:02.272Z,-4.12
2017-06-15T04:19:50.920Z,-4.12
2017-06-15T04:20:44.965Z,-4.12
2017-06-15T04:21:50.939Z,-4.12
2017-06-15T04:22:39.064Z,-4.12
2017-06-15T04:23:40.040Z,-4.12
2017-06-15T04:24:34.147Z,-4.12
2017-06-15T04:25:28.163Z,-4.12
2017-06-15T04:26:23.163Z,-4.12
2017-06-15T04:27:12.184Z,-4.12
2017-06-15T04:28:07.254Z,-4.12
2017-06-15T04:28:56.370Z,-4.12
2017-06-15T04:29:56.413Z,-4.12
2017-06-15T04:30:44.369Z,-4.12
2017-06-15T04:31:44.430Z,-4.11
2017-06-15T04:32:38.455Z,-4.11
2017-06-15T04:33:32.646Z,-3.08
2017-06-15T04:34:26.526Z,1.27
2017-06-15T04:35:20.588Z,4.45
2017-06-15T04:36:15.647Z,13.50
2017-06-15T04:37:15.690Z,16.24
2017-06-15T04:38:04.687Z,18.22
2017-06-15T04:39:00.122Z,20.78
2017-06-15T04:39:54.774Z,29.17
2017-06-15T04:40:54.852Z,31.68
2017-06-15T04:41:44.073Z,32.32
2017-06-15T04:42:37.932Z,33.03
2017-06-15T04:43:26.958Z,38.33
2017-06-15T04:44:15.012Z,39.44
2017-06-15T04:45:03.062Z,42.65
2017-06-15T04:45:57.179Z,44.14
2017-06-15T04:46:51.162Z,43.69
2017-06-15T04:47:45.148Z,48.53
2017-06-15T04:48:40.237Z,49.44
2017-06-15T04:49:34.271Z,47.71
2017-06-15T04:50:40.356Z,47.18
2017-06-15T04:51:41.620Z,46.86
2017-06-15T04:52:35.411Z,50.13
2017-06-15T04:53:35.630Z,50.81
2017-06-15T04:54:24.472Z,50.53
2017-06-15T04:55:24.554Z,50.79
2017-06-15T04:56:19.747Z,50.74
2017-06-15T04:57:14.810Z,49.80
2017-06-15T04:58:04.000Z,49.61
2017-06-15T04:58:59.139Z,45.45
2017-06-15T04:59:53.031Z,48.41
2017-06-15T05:00:52.808Z,49.29
2017-06-15T05:01:46.859Z,51.09
2017-06-15T05:02:47.937Z,50.51
2017-06-15T05:03:41.910Z,51.00
2017-06-15T05:04:30.985Z,50.83
2017-06-15T05:05:31.105Z,51.59
2017-06-15T05:06:25.108Z,53.19
2017-06-15T05:07:20.126Z,52.39
2017-06-15T05:08:14.520Z,51.90
2017-06-15T05:09:08.748Z,53.44
2017-06-15T05:10:02.283Z,53.45
2017-06-15T05:10:57.617Z,53.72
2017-06-15T05:11:46.629Z,53.48
2017-06-15T05:12:34.442Z,53.79
2017-06-15T05:13:29.792Z,54.98
2017-06-15T05:14:30.608Z,53.90
2017-06-15T05:15:25.580Z,54.28
2017-06-15T05:16:25.625Z,53.74
2017-06-15T05:17:20.899Z,53.29
2017-06-15T05:18:14.981Z,53.35
2017-06-15T05:19:10.088Z,53.00
2017-06-15T05:20:09.067Z,51.22
2017-06-15T05:21:09.038Z,52.40
2017-06-15T05:22:04.108Z,51.30
2017-06-15T05:22:59.216Z,52.27
2017-06-15T05:23:59.347Z,51.44
2017-06-15T05:24:54.531Z,53.20
2017-06-15T05:25:49.034Z,50.95
2017-06-15T05:26:55.156Z,51.49
2017-06-15T05:27:49.131Z,50.91
2017-06-15T05:28:49.480Z,51.15
2017-06-15T05:29:43.242Z,49.88
2017-06-15T05:30:37.640Z,50.57
2017-06-15T05:31:32.348Z,50.80
2017-06-15T05:32:27.425Z,52.00
2017-06-15T05:33:21.439Z,51.02
2017-06-15T05:34:16.720Z,52.67
2017-06-15T05:35:05.597Z,52.29
2017-06-15T05:36:00.963Z,53.09
2017-06-15T05:36:54.657Z,51.99
2017-06-15T05:37:48.747Z,53.60
2017-06-15T05:38:36.763Z,53.89
2017-06-15T05:39:36.828Z,53.72
2017-06-15T05:40:31.860Z,54.53
2017-06-15T05:41:27.497Z,54.10
2017-06-15T05:42:15.297Z,53.72
2017-06-15T05:43:15.992Z,54.39
2017-06-15T05:44:16.385Z,53.78
2017-06-15T05:45:11.279Z,54.65
2017-06-15T05:46:00.488Z,54.72
2017-06-15T05:46:54.851Z,54.28
2017-06-15T05:47:48.594Z,54.21
2017-06-15T05:48:42.620Z,54.43
2017-06-15T05:49:31.709Z,54.49
2017-06-15T05:50:26.743Z,54.45
2017-06-15T05:51:20.787Z,54.34
2017-06-15T05:52:21.200Z,54.48
2017-06-15T05:53:14.896Z,53.93
2017-06-15T05:54:15.920Z,54.27
2017-06-15T05:55:15.997Z,54.56
2017-06-15T05:56:11.082Z,54.84
2017-06-15T05:57:11.084Z,54.39
2017-06-15T05:58:06.494Z,54.22
2017-06-15T05:59:01.234Z,54.39
2017-06-15T05:59:55.277Z,54.74
2017-06-15T06:00:55.342Z,54.51
2017-06-15T06:01:49.521Z,54.27
2017-06-15T06:02:50.447Z,54.47
2017-06-15T06:03:50.795Z,54.59
2017-06-15T06:04:45.525Z,54.05
2017-06-15T06:05:39.589Z,54.17
2017-06-15T06:06:28.625Z,54.48
2017-06-15T06:07:23.710Z,53.84
2017-06-15T06:08:18.762Z,53.94
2017-06-15T06:09:13.458Z,54.25
2017-06-15T06:10:07.820Z,53.65
2017-06-15T06:11:07.925Z,54.02
2017-06-15T06:12:01.932Z,54.04
2017-06-15T06:13:08.018Z,53.94
2017-06-15T06:14:02.098Z,54.49
2017-06-15T06:15:02.450Z,54.43
2017-06-15T06:15:51.113Z,54.32
2017-06-15T06:16:46.193Z,54.37
2017-06-15T06:17:40.284Z,54.49
2017-06-15T06:18:35.334Z,54.10
2017-06-15T06:19:24.376Z,54.18
2017-06-15T06:20:19.445Z,54.21
2017-06-15T06:21:13.497Z,54.31
2017-06-15T06:22:14.558Z,54.17
2017-06-15T06:23:08.619Z,53.70
2017-06-15T06:24:03.724Z,54.00
2017-06-15T06:24:52.747Z,54.01
2017-06-15T06:25:52.915Z,53.55
2017-06-15T06:26:52.842Z,53.71
2017-06-15T06:27:47.872Z,53.71
2017-06-15T06:28:47.892Z,53.17
2017-06-15T06:29:43.014Z,53.12
2017-06-15T06:30:37.035Z,53.54
2017-06-15T06:31:32.060Z,53.83
2017-06-15T06:32:27.134Z,53.09
2017-06-15T06:33:22.185Z,52.93
2017-06-15T06:34:17.288Z,51.85
2017-06-15T06:35:12.312Z,51.54
2017-06-15T06:36:06.350Z,51.75
2017-06-15T06:37:06.447Z,52.03
2017-06-15T06:38:06.515Z,52.20
2017-06-15T06:39:06.570Z,51.91
2017-06-15T06:40:00.577Z,52.54
2017-06-15T06:40:55.636Z,52.50
2017-06-15T06:41:50.687Z,52.42
2017-06-15T06:42:38.909Z,51.88
2017-06-15T06:43:33.821Z,52.24
2017-06-15T06:44:34.877Z,52.52
2017-06-15T06:45:28.974Z,52.75
2017-06-15T06:46:28.981Z,52.59
2017-06-15T06:47:24.038Z,53.34
2017-06-15T06:48:19.159Z,53.73
2017-06-15T06:49:08.116Z,54.16
2017-06-15T06:50:03.224Z,53.59
2017-06-15T06:50:58.244Z,53.63
2017-06-15T06:51:59.290Z,53.02
2017-06-15T06:53:00.295Z,53.64
2017-06-15T06:53:54.452Z,53.99
2017-06-15T06:54:54.455Z,53.89
2017-06-15T06:55:49.540Z,53.99
2017-06-15T06:56:43.599Z,53.80
2017-06-15T06:57:37.634Z,53.30
2017-06-15T06:58:32.708Z,52.10
2017-06-15T06:59:27.805Z,51.90
2017-06-15T07:00:16.867Z,52.31
2017-06-15T07:01:16.874Z,51.53
2017-06-15T07:02:11.948Z,52.33
2017-06-15T07:03:06.024Z,52.42
2017-06-15T07:04:06.089Z,51.95
2017-06-15T07:05:06.103Z,52.68
2017-06-15T07:06:00.228Z,52.48
2017-06-15T07:06:54.261Z,52.35
2017-06-15T07:07:54.305Z,52.75
2017-06-15T07:08:48.370Z,51.91
2017-06-15T07:09:43.412Z,52.86
2017-06-15T07:10:44.503Z,51.50
2017-06-15T07:11:44.498Z,51.55
2017-06-15T07:12:39.586Z,52.34
2017-06-15T07:13:34.647Z,51.88
2017-06-15T07:14:29.708Z,51.36
2017-06-15T07:15:23.788Z,51.19
2017-06-15T07:16:18.092Z,53.22
2017-06-15T07:17:17.891Z,51.60
2017-06-15T07:18:12.954Z,51.75
2017-06-15T07:19:08.021Z,51.45
2017-06-15T07:20:02.112Z,52.51
2017-06-15T07:20:56.142Z,52.74
2017-06-15T07:21:50.180Z,52.15
2017-06-15T07:22:50.236Z,51.82
2017-06-15T07:23:44.319Z,51.23
2017-06-15T07:24:39.341Z,50.42
2017-06-15T07:25:34.471Z,50.84
2017-06-15T07:26:29.500Z,51.16
2017-06-15T07:27:18.554Z,51.77
2017-06-15T07:28:07.626Z,52.34
2017-06-15T07:29:01.714Z,50.10
2017-06-15T07:29:55.807Z,50.48
2017-06-15T07:30:49.890Z,50.48
2017-06-15T07:31:38.936Z,50.11
2017-06-15T07:32:39.115Z,49.92
2017-06-15T07:33:39.116Z,49.63
2017-06-15T07:34:33.179Z,50.20
2017-06-15T07:35:27.282Z,50.77
2017-06-15T07:36:16.281Z,50.93
2017-06-15T07:37:11.403Z,49.21
2017-06-15T07:38:12.456Z,49.26
2017-06-15T07:39:07.548Z,49.68
2017-06-15T07:40:07.633Z,50.84
2017-06-15T07:41:02.691Z,52.17
2017-06-15T07:42:02.709Z,52.63
2017-06-15T07:42:51.780Z,51.98
2017-06-15T07:43:51.881Z,52.67
2017-06-15T07:44:51.922Z,52.48
2017-06-15T07:45:45.965Z,51.97
2017-06-15T07:46:40.010Z,50.35
2017-06-15T07:47:34.114Z,50.04
2017-06-15T07:48:35.172Z,49.13
2017-06-15T07:49:30.361Z,49.93
2017-06-15T07:50:25.363Z,49.49
2017-06-15T07:51:25.462Z,48.87
2017-06-15T07:52:19.541Z,48.91
2017-06-15T07:53:08.567Z,49.38
2017-06-15T07:54:08.706Z,49.20
2017-06-15T07:55:03.802Z,49.90
2017-06-15T07:55:58.842Z,48.87
2017-06-15T07:56:46.914Z,48.19
2017-06-15T07:57:41.992Z,46.31
2017-06-15T07:58:36.047Z,45.05
2017-06-15T07:59:25.171Z,45.74
2017-06-15T08:00:19.235Z,44.21
2017-06-15T08:01:19.311Z,46.79
2017-06-15T08:02:19.366Z,46.48
2017-06-15T08:03:14.532Z,45.15
2017-06-15T08:04:08.581Z,45.16
2017-06-15T08:05:08.621Z,46.55
2017-06-15T08:06:08.765Z,47.46
2017-06-15T08:07:09.825Z,46.93
2017-06-15T08:08:09.892Z,48.28
2017-06-15T08:09:10.921Z,47.96
2017-06-15T08:10:04.986Z,48.72
2017-06-15T08:10:59.084Z,48.77
2017-06-15T08:11:48.226Z,49.84
2017-06-15T08:12:42.268Z,47.70
2017-06-15T08:13:37.344Z,46.50
2017-06-15T08:14:32.394Z,46.80
2017-06-15T08:15:26.506Z,47.40
2017-06-15T08:16:21.660Z,46.16
2017-06-15T08:17:15.716Z,45.29
2017-06-15T08:18:09.751Z,44.70
2017-06-15T08:19:04.848Z,44.04
2017-06-15T08:20:04.883Z,44.76
2017-06-15T08:20:58.962Z,46.49
2017-06-15T08:21:53.040Z,47.68
2017-06-15T08:22:42.195Z,45.09
2017-06-15T08:23:36.202Z,47.48
2017-06-15T08:24:25.330Z,45.45
2017-06-15T08:25:25.397Z,47.25
2017-06-15T08:26:20.504Z,45.99
2017-06-15T08:27:20.567Z,47.38
2017-06-15T08:28:15.656Z,47.61
2017-06-15T08:29:04.766Z,47.84
2017-06-15T08:29:58.773Z,49.11
2017-06-15T08:30:58.874Z,46.86
2017-06-15T08:31:52.894Z,48.53
2017-06-15T08:32:42.067Z,47.43
2017-06-15T08:33:31.089Z,47.40
2017-06-15T08:34:25.178Z,45.78
2017-06-15T08:35:20.282Z,45.03
2017-06-15T08:36:09.357Z,44.49
2017-06-15T08:36:58.404Z,44.52
2017-06-15T08:37:47.562Z,42.95
2017-06-15T08:38:41.695Z,43.02
2017-06-15T08:39:41.746Z,41.83
2017-06-15T08:40:47.817Z,41.46
2017-06-15T08:41:47.835Z,43.24
2017-06-15T08:42:41.924Z,41.63
2017-06-15T08:43:31.053Z,41.70
2017-06-15T08:44:20.130Z,43.23
2017-06-15T08:45:09.205Z,43.36
2017-06-15T08:45:58.284Z,42.38
2017-06-15T08:46:52.366Z,45.47
2017-06-15T08:47:46.481Z,43.71
2017-06-15T08:48:35.534Z,43.03
2017-06-15T08:49:30.584Z,44.34
2017-06-15T08:50:25.687Z,42.24
2017-06-15T08:51:20.784Z,42.56
2017-06-15T08:52:09.805Z,43.10
2017-06-15T08:52:58.916Z,45.04
2017-06-15T08:53:54.011Z,43.62
2017-06-15T08:54:54.160Z,42.02
2017-06-15T08:55:48.138Z,45.91
2017-06-15T08:56:42.260Z,47.03
2017-06-15T08:57:37.352Z,45.90
2017-06-15T08:58:32.422Z,44.96
2017-06-15T08:59:26.507Z,45.82
2017-06-15T09:00:14.629Z,44.36
2017-06-15T09:01:08.720Z,44.79
2017-06-15T09:01:57.791Z,42.63
2017-06-15T09:02:52.873Z,43.50
2017-06-15T09:03:47.959Z,43.93
2017-06-15T09:04:42.025Z,43.51
2017-06-15T09:05:31.139Z,40.03
2017-06-15T09:06:25.217Z,41.91
2017-06-15T09:07:20.271Z,43.36
2017-06-15T09:08:14.321Z,41.97
2017-06-15T09:09:03.454Z,39.88
2017-06-15T09:10:03.541Z,41.64
2017-06-15T09:10:57.942Z,42.01
2017-06-15T09:11:51.705Z,43.29
2017-06-15T09:12:51.808Z,42.65
2017-06-15T09:13:45.867Z,43.17
2017-06-15T09:14:39.971Z,40.88
2017-06-15T09:15:29.017Z,42.78
2017-06-15T09:16:23.141Z,42.86
2017-06-15T09:17:17.251Z,42.48
2017-06-15T09:18:11.325Z,42.93
2017-06-15T09:19:00.420Z,42.73
2017-06-15T09:19:54.514Z,45.14
2017-06-15T09:20:49.626Z,44.36
2017-06-15T09:21:38.677Z,43.02
2017-06-15T09:22:27.718Z,43.58
2017-06-15T09:23:22.848Z,45.77
2017-06-15T09:24:16.913Z,45.66
2017-06-15T09:25:04.947Z,45.32
2017-06-15T09:25:59.084Z,44.05
2017-06-15T09:26:53.304Z,45.55
2017-06-15T09:27:47.190Z,44.38
2017-06-15T09:28:35.339Z,43.47
2017-06-15T09:29:29.417Z,47.49
2017-06-15T09:30:29.510Z,48.27
2017-06-15T09:31:24.571Z,44.62
2017-06-15T09:32:12.682Z,45.46
2017-06-15T09:33:06.777Z,44.18
2017-06-15T09:34:00.904Z,44.49
2017-06-15T09:34:55.948Z,45.27
2017-06-15T09:35:50.021Z,44.80
2017-06-15T09:36:39.159Z,44.44
2017-06-15T09:37:28.161Z,47.02
2017-06-15T09:38:23.308Z,43.98
2017-06-15T09:39:18.346Z,44.35
2017-06-15T09:40:13.453Z,44.24
2017-06-15T09:41:08.558Z,46.63
2017-06-15T09:41:57.623Z,44.74
2017-06-15T09:42:58.865Z,41.51
2017-06-15T09:43:52.805Z,40.43
2017-06-15T09:44:46.893Z,42.64
2017-06-15T09:45:47.982Z,41.13
2017-06-15T09:46:48.033Z,41.11
2017-06-15T09:47:37.152Z,40.28
2017-06-15T09:48:32.249Z,43.02
2017-06-15T09:49:26.312Z,41.98
2017-06-15T09:50:14.434Z,43.01
2017-06-15T09:51:08.557Z,42.60
2017-06-15T09:52:03.642Z,39.91
2017-06-15T09:52:52.734Z,41.06
2017-06-15T09:53:41.830Z,40.30
2017-06-15T09:54:41.881Z,40.92
2017-06-15T09:55:36.964Z,40.98
2017-06-15T09:56:31.017Z,41.53
2017-06-15T09:57:20.151Z,42.91
2017-06-15T09:58:09.183Z,41.41
2017-06-15T09:58:57.382Z,42.46
2017-06-15T09:59:46.388Z,42.76
2017-06-15T10:00:35.497Z,39.41
2017-06-15T10:01:29.612Z,40.02
2017-06-15T10:02:23.666Z,40.56
2017-06-15T10:03:12.803Z,41.79
2017-06-15T10:04:07.882Z,41.94
2017-06-15T10:05:01.933Z,39.73
2017-06-15T10:06:02.019Z,40.57
2017-06-15T10:07:02.094Z,41.40
2017-06-15T10:07:57.216Z,42.53
2017-06-15T10:08:45.272Z,40.47
2017-06-15T10:09:45.413Z,41.11
2017-06-15T10:10:45.448Z,40.41
2017-06-15T10:11:39.546Z,42.38
2017-06-15T10:12:33.611Z,42.98
2017-06-15T10:13:22.690Z,43.29
2017-06-15T10:14:11.841Z,42.35
2017-06-15T10:15:06.013Z,42.12
2017-06-15T10:16:06.002Z,43.41
2017-06-15T10:16:55.106Z,44.04
2017-06-15T10:17:49.190Z,42.76
2017-06-15T10:18:49.233Z,44.55
2017-06-15T10:19:43.395Z,45.69
2017-06-15T10:20:37.414Z,45.07
2017-06-15T10:21:32.534Z,45.14
2017-06-15T10:22:21.576Z,44.81
2017-06-15T10:23:21.698Z,44.67
2017-06-15T10:24:21.798Z,45.92
2017-06-15T10:25:21.848Z,44.58
2017-06-15T10:26:10.972Z,43.84
2017-06-15T10:27:04.988Z,42.19
2017-06-15T10:28:05.124Z,42.29
2017-06-15T10:28:54.249Z,43.49
2017-06-15T10:29:48.287Z,39.06
2017-06-15T10:30:48.355Z,42.09
2017-06-15T10:31:43.496Z,42.25
2017-06-15T10:32:43.514Z,42.38
2017-06-15T10:33:38.613Z,43.76
2017-06-15T10:34:27.723Z,42.85
2017-06-15T10:35:27.787Z,43.36
2017-06-15T10:36:27.885Z,41.12
2017-06-15T10:37:27.943Z,42.29
2017-06-15T10:38:28.054Z,42.75
2017-06-15T10:39:17.106Z,40.67
2017-06-15T10:40:06.200Z,40.86
2017-06-15T10:41:00.295Z,42.60
2017-06-15T10:42:00.354Z,42.09
2017-06-15T10:43:00.470Z,41.56
2017-06-15T10:43:55.526Z,42.57
2017-06-15T10:44:50.626Z,43.43
2017-06-15T10:45:39.683Z,44.95
2017-06-15T10:46:27.807Z,42.59
2017-06-15T10:47:16.895Z,42.88
2017-06-15T10:48:17.031Z,41.37
2017-06-15T10:49:11.211Z,41.63
2017-06-15T10:50:05.128Z,43.42
2017-06-15T10:50:54.223Z,41.78
2017-06-15T10:51:49.299Z,42.82
2017-06-15T10:52:44.387Z,42.64
2017-06-15T10:53:33.472Z,39.36
2017-06-15T10:54:28.540Z,41.00
2017-06-15T10:55:23.651Z,42.04
2017-06-15T10:56:23.714Z,45.22
2017-06-15T10:57:17.783Z,44.85
2017-06-15T10:58:12.875Z,43.06
2017-06-15T10:59:08.349Z,44.96
2017-06-15T11:00:03.015Z,44.03
2017-06-15T11:00:51.154Z,43.37
2017-06-15T11:01:40.224Z,43.38
2017-06-15T11:02:34.316Z,42.06
2017-06-15T11:03:28.372Z,40.59
2017-06-15T11:04:23.763Z,41.13
2017-06-15T11:05:23.567Z,45.02
2017-06-15T11:06:24.621Z,41.46
2017-06-15T11:07:18.740Z,43.57
2017-06-15T11:08:06.803Z,41.27
2017-06-15T11:09:00.913Z,43.95
2017-06-15T11:10:01.304Z,41.27
2017-06-15T11:10:56.096Z,43.91
2017-06-15T11:11:56.167Z,42.14
2017-06-15T11:12:56.221Z,42.88
2017-06-15T11:13:50.343Z,43.44
2017-06-15T11:14:44.343Z,45.12
2017-06-15T11:15:33.800Z,44.52
2017-06-15T11:16:22.538Z,44.77
2017-06-15T11:17:17.618Z,44.56
2017-06-15T11:18:05.736Z,45.26
2017-06-15T11:18:53.817Z,42.78
2017-06-15T11:19:42.895Z,42.50
2017-06-15T11:20:38.542Z,41.54
2017-06-15T11:21:32.070Z,41.32
2017-06-15T11:22:20.165Z,43.08
2017-06-15T11:23:14.258Z,43.51
2017-06-15T11:24:08.338Z,42.15
2017-06-15T11:24:56.347Z,41.25
2017-06-15T11:25:45.827Z,42.99
2017-06-15T11:26:34.548Z,38.92
2017-06-15T11:27:29.649Z,36.36
2017-06-15T11:28:29.709Z,37.98
2017-06-15T11:29:23.847Z,38.06
2017-06-15T11:30:12.895Z,36.34
2017-06-15T11:31:08.024Z,34.20
2017-06-15T11:31:57.069Z,35.47
2017-06-15T11:32:51.173Z,34.14